sensor_id;sensor_type;location;lat;lon;timestamp;temperature;humidity
53776;DHT22;44276;49.534;6.378;2023-04-03T00:01:33;5.00;54.80
53776;DHT22;44276;49.534;6.378;2023-04-03T00:04:01;5.00;54.80
53776;DHT22;44276;49.534;6.378;2023-04-03T00:06:29;5.00;54.70
53776;DHT22;44276;49.534;6.378;2023-04-03T00:08:58;4.90;57.40
53776;DHT22;44276;49.534;6.378;2023-04-03T00:11:26;4.90;53.80
53776;DHT22;44276;49.534;6.378;2023-04-03T00:13:54;4.80;56.50
53776;DHT22;44276;49.534;6.378;2023-04-03T00:16:22;4.90;49.30
53776;DHT22;44276;49.534;6.378;2023-04-03T00:18:51;4.90;47.20
53776;DHT22;44276;49.534;6.378;2023-04-03T00:21:20;4.80;53.00
53776;DHT22;44276;49.534;6.378;2023-04-03T00:23:48;4.70;49.40
53776;DHT22;44276;49.534;6.378;2023-04-03T00:26:16;4.70;49.60
53776;DHT22;44276;49.534;6.378;2023-04-03T00:28:45;4.70;47.50
53776;DHT22;44276;49.534;6.378;2023-04-03T00:31:14;4.60;47.10
53776;DHT22;44276;49.534;6.378;2023-04-03T00:33:42;4.60;47.00
53776;DHT22;44276;49.534;6.378;2023-04-03T00:36:12;4.60;48.40
53776;DHT22;44276;49.534;6.378;2023-04-03T00:38:41;4.50;49.80
53776;DHT22;44276;49.534;6.378;2023-04-03T00:41:09;4.40;54.00
53776;DHT22;44276;49.534;6.378;2023-04-03T00:43:37;4.40;54.70
53776;DHT22;44276;49.534;6.378;2023-04-03T00:46:05;4.40;51.30
53776;DHT22;44276;49.534;6.378;2023-04-03T00:48:37;4.30;55.90
53776;DHT22;44276;49.534;6.378;2023-04-03T00:51:10;4.30;55.10
53776;DHT22;44276;49.534;6.378;2023-04-03T00:53:44;4.40;49.90
53776;DHT22;44276;49.534;6.378;2023-04-03T00:56:17;4.40;48.90
53776;DHT22;44276;49.534;6.378;2023-04-03T00:58:50;4.50;45.00
53776;DHT22;44276;49.534;6.378;2023-04-03T01:01:24;4.50;45.70
53776;DHT22;44276;49.534;6.378;2023-04-03T01:03:54;4.60;43.30
53776;DHT22;44276;49.534;6.378;2023-04-03T01:06:27;4.60;41.80
53776;DHT22;44276;49.534;6.378;2023-04-03T01:08:57;4.60;43.70
53776;DHT22;44276;49.534;6.378;2023-04-03T01:11:27;4.50;44.50
53776;DHT22;44276;49.534;6.378;2023-04-03T01:13:55;4.50;46.20
53776;DHT22;44276;49.534;6.378;2023-04-03T01:16:23;4.50;45.80
53776;DHT22;44276;49.534;6.378;2023-04-03T01:18:52;4.50;44.00
53776;DHT22;44276;49.534;6.378;2023-04-03T01:24:41;4.50;43.80
53776;DHT22;44276;49.534;6.378;2023-04-03T01:27:10;4.50;45.50
53776;DHT22;44276;49.534;6.378;2023-04-03T01:29:40;4.40;47.90
53776;DHT22;44276;49.534;6.378;2023-04-03T01:32:11;4.50;43.80
53776;DHT22;44276;49.534;6.378;2023-04-03T01:34:40;4.50;44.20
53776;DHT22;44276;49.534;6.378;2023-04-03T01:37:08;4.50;44.60
53776;DHT22;44276;49.534;6.378;2023-04-03T01:39:36;4.40;43.70
53776;DHT22;44276;49.534;6.378;2023-04-03T01:42:04;4.40;46.70
53776;DHT22;44276;49.534;6.378;2023-04-03T01:44:33;4.40;44.30
53776;DHT22;44276;49.534;6.378;2023-04-03T01:47:02;4.40;45.90
53776;DHT22;44276;49.534;6.378;2023-04-03T01:49:34;4.40;44.50
53776;DHT22;44276;49.534;6.378;2023-04-03T01:52:02;4.40;45.40
53776;DHT22;44276;49.534;6.378;2023-04-03T01:54:30;4.40;46.20
53776;DHT22;44276;49.534;6.378;2023-04-03T01:56:59;4.40;44.20
53776;DHT22;44276;49.534;6.378;2023-04-03T01:59:27;4.20;45.10
53776;DHT22;44276;49.534;6.378;2023-04-03T02:01:55;4.00;47.80
53776;DHT22;44276;49.534;6.378;2023-04-03T02:04:23;3.70;49.50
53776;DHT22;44276;49.534;6.378;2023-04-03T02:06:53;3.60;50.00
53776;DHT22;44276;49.534;6.378;2023-04-03T02:09:21;3.40;55.60
53776;DHT22;44276;49.534;6.378;2023-04-03T02:11:49;3.10;62.10
53776;DHT22;44276;49.534;6.378;2023-04-03T02:14:17;2.80;69.30
53776;DHT22;44276;49.534;6.378;2023-04-03T02:16:46;2.50;77.40
53776;DHT22;44276;49.534;6.378;2023-04-03T02:19:14;2.50;80.50
53776;DHT22;44276;49.534;6.378;2023-04-03T02:21:42;2.40;86.40
53776;DHT22;44276;49.534;6.378;2023-04-03T02:24:12;2.30;92.50
53776;DHT22;44276;49.534;6.378;2023-04-03T02:26:40;2.10;95.80
53776;DHT22;44276;49.534;6.378;2023-04-03T02:29:08;1.80;99.90
53776;DHT22;44276;49.534;6.378;2023-04-03T02:31:36;1.80;99.90
53776;DHT22;44276;49.534;6.378;2023-04-03T02:34:04;1.70;99.90
53776;DHT22;44276;49.534;6.378;2023-04-03T02:36:33;1.50;99.90
53776;DHT22;44276;49.534;6.378;2023-04-03T02:39:01;1.40;99.90
53776;DHT22;44276;49.534;6.378;2023-04-03T02:41:31;1.20;99.90
53776;DHT22;44276;49.534;6.378;2023-04-03T02:44:02;1.10;99.90
53776;DHT22;44276;49.534;6.378;2023-04-03T02:46:31;0.90;99.90
53776;DHT22;44276;49.534;6.378;2023-04-03T02:49:00;0.70;99.90
53776;DHT22;44276;49.534;6.378;2023-04-03T02:51:28;0.50;99.90
53776;DHT22;44276;49.534;6.378;2023-04-03T02:53:56;0.30;99.90
53776;DHT22;44276;49.534;6.378;2023-04-03T02:56:24;0.30;99.90
53776;DHT22;44276;49.534;6.378;2023-04-03T02:58:54;0.50;99.90
53776;DHT22;44276;49.534;6.378;2023-04-03T03:01:22;0.60;99.90
53776;DHT22;44276;49.534;6.378;2023-04-03T03:03:51;0.40;99.90
53776;DHT22;44276;49.534;6.378;2023-04-03T03:06:19;0.20;99.90
53776;DHT22;44276;49.534;6.378;2023-04-03T03:08:47;0.00;99.90
53776;DHT22;44276;49.534;6.378;2023-04-03T03:11:15;-0.20;99.90
53776;DHT22;44276;49.534;6.378;2023-04-03T03:13:43;-0.30;99.90
53776;DHT22;44276;49.534;6.378;2023-04-03T03:16:13;-0.10;99.90
53776;DHT22;44276;49.534;6.378;2023-04-03T03:18:41;0.00;99.90
53776;DHT22;44276;49.534;6.378;2023-04-03T03:21:09;0.10;99.90
53776;DHT22;44276;49.534;6.378;2023-04-03T03:23:38;0.00;99.90
53776;DHT22;44276;49.534;6.378;2023-04-03T03:26:08;0.00;99.90
53776;DHT22;44276;49.534;6.378;2023-04-03T03:28:38;-0.30;99.90
53776;DHT22;44276;49.534;6.378;2023-04-03T03:31:08;-0.50;99.90
53776;DHT22;44276;49.534;6.378;2023-04-03T03:33:38;-0.70;99.90
53776;DHT22;44276;49.534;6.378;2023-04-03T03:36:07;-0.80;99.90
53776;DHT22;44276;49.534;6.378;2023-04-03T03:38:35;-0.90;99.90
53776;DHT22;44276;49.534;6.378;2023-04-03T03:41:03;-0.80;99.90
53776;DHT22;44276;49.534;6.378;2023-04-03T03:43:31;-0.70;99.90
53776;DHT22;44276;49.534;6.378;2023-04-03T03:45:59;-0.70;99.90
53776;DHT22;44276;49.534;6.378;2023-04-03T03:48:27;-0.70;99.90
53776;DHT22;44276;49.534;6.378;2023-04-03T03:50:57;-0.70;99.90
53776;DHT22;44276;49.534;6.378;2023-04-03T03:53:25;-0.80;99.90
53776;DHT22;44276;49.534;6.378;2023-04-03T03:55:53;-0.90;99.90
53776;DHT22;44276;49.534;6.378;2023-04-03T03:58:21;-0.90;99.90
53776;DHT22;44276;49.534;6.378;2023-04-03T04:00:49;-0.90;99.90
53776;DHT22;44276;49.534;6.378;2023-04-03T04:03:17;-0.80;99.90
53776;DHT22;44276;49.534;6.378;2023-04-03T04:05:46;-0.70;99.90
53776;DHT22;44276;49.534;6.378;2023-04-03T04:08:15;-0.80;99.90
53776;DHT22;44276;49.534;6.378;2023-04-03T04:10:44;-0.80;99.90
53776;DHT22;44276;49.534;6.378;2023-04-03T04:13:12;-0.90;99.90
53776;DHT22;44276;49.534;6.378;2023-04-03T04:15:40;-1.00;99.90
53776;DHT22;44276;49.534;6.378;2023-04-03T04:18:08;-1.00;99.90
53776;DHT22;44276;49.534;6.378;2023-04-03T04:20:36;-1.10;99.90
53776;DHT22;44276;49.534;6.378;2023-04-03T04:23:04;-1.10;99.90
53776;DHT22;44276;49.534;6.378;2023-04-03T04:25:34;-1.00;99.90
53776;DHT22;44276;49.534;6.378;2023-04-03T04:28:02;-1.10;99.90
53776;DHT22;44276;49.534;6.378;2023-04-03T04:30:30;-1.10;99.90
53776;DHT22;44276;49.534;6.378;2023-04-03T04:32:58;-1.10;99.90
53776;DHT22;44276;49.534;6.378;2023-04-03T04:35:26;-1.10;99.90
53776;DHT22;44276;49.534;6.378;2023-04-03T04:37:55;-1.20;99.90
53776;DHT22;44276;49.534;6.378;2023-04-03T04:40:23;-1.20;99.90
53776;DHT22;44276;49.534;6.378;2023-04-03T04:42:52;-1.00;99.90
53776;DHT22;44276;49.534;6.378;2023-04-03T04:45:20;-1.10;99.90
53776;DHT22;44276;49.534;6.378;2023-04-03T04:47:49;-1.10;99.90
53776;DHT22;44276;49.534;6.378;2023-04-03T04:50:19;-0.90;99.90
53776;DHT22;44276;49.534;6.378;2023-04-03T04:52:47;-0.70;99.90
53776;DHT22;44276;49.534;6.378;2023-04-03T04:55:15;-0.50;99.90
53776;DHT22;44276;49.534;6.378;2023-04-03T04:57:44;-0.30;99.90
53776;DHT22;44276;49.534;6.378;2023-04-03T05:00:14;-0.20;99.90
53776;DHT22;44276;49.534;6.378;2023-04-03T05:02:43;-0.10;99.90
53776;DHT22;44276;49.534;6.378;2023-04-03T05:05:11;0.00;99.90
53776;DHT22;44276;49.534;6.378;2023-04-03T05:07:39;0.00;99.90
53776;DHT22;44276;49.534;6.378;2023-04-03T05:10:09;0.10;99.90
53776;DHT22;44276;49.534;6.378;2023-04-03T05:12:37;0.10;99.90
53776;DHT22;44276;49.534;6.378;2023-04-03T05:15:07;0.10;99.90
53776;DHT22;44276;49.534;6.378;2023-04-03T05:17:37;0.10;99.90
53776;DHT22;44276;49.534;6.378;2023-04-03T05:20:07;0.10;99.90
53776;DHT22;44276;49.534;6.378;2023-04-03T05:22:35;0.00;99.90
53776;DHT22;44276;49.534;6.378;2023-04-03T05:25:05;0.20;99.90
53776;DHT22;44276;49.534;6.378;2023-04-03T05:27:33;0.10;99.90
53776;DHT22;44276;49.534;6.378;2023-04-03T05:30:02;0.10;99.90
53776;DHT22;44276;49.534;6.378;2023-04-03T05:32:30;0.10;99.90
53776;DHT22;44276;49.534;6.378;2023-04-03T05:35:00;0.10;99.90
53776;DHT22;44276;49.534;6.378;2023-04-03T05:37:28;0.00;99.90
53776;DHT22;44276;49.534;6.378;2023-04-03T05:39:56;0.10;99.90
53776;DHT22;44276;49.534;6.378;2023-04-03T05:42:25;0.20;99.90
53776;DHT22;44276;49.534;6.378;2023-04-03T05:44:53;0.30;99.90
53776;DHT22;44276;49.534;6.378;2023-04-03T05:47:21;0.40;99.90
53776;DHT22;44276;49.534;6.378;2023-04-03T05:49:50;0.40;99.90
53776;DHT22;44276;49.534;6.378;2023-04-03T05:52:22;0.40;99.90
53776;DHT22;44276;49.534;6.378;2023-04-03T05:54:54;0.40;99.90
53776;DHT22;44276;49.534;6.378;2023-04-03T05:57:22;0.90;99.90
53776;DHT22;44276;49.534;6.378;2023-04-03T05:59:51;1.80;99.90
53776;DHT22;44276;49.534;6.378;2023-04-03T06:02:21;2.80;99.90
53776;DHT22;44276;49.534;6.378;2023-04-03T06:04:51;3.60;99.90
53776;DHT22;44276;49.534;6.378;2023-04-03T06:07:22;4.30;99.90
53776;DHT22;44276;49.534;6.378;2023-04-03T06:09:55;4.90;89.30
53776;DHT22;44276;49.534;6.378;2023-04-03T06:12:24;5.30;75.30
53776;DHT22;44276;49.534;6.378;2023-04-03T06:14:52;5.60;64.20
53776;DHT22;44276;49.534;6.378;2023-04-03T06:17:20;5.80;60.10
53776;DHT22;44276;49.534;6.378;2023-04-03T06:19:49;5.90;55.80
53776;DHT22;44276;49.534;6.378;2023-04-03T06:22:17;6.10;51.30
53776;DHT22;44276;49.534;6.378;2023-04-03T06:24:46;6.20;51.90
53776;DHT22;44276;49.534;6.378;2023-04-03T06:27:14;6.30;47.90
53776;DHT22;44276;49.534;6.378;2023-04-03T06:29:43;6.70;45.60
53776;DHT22;44276;49.534;6.378;2023-04-03T06:32:12;7.00;42.70
53776;DHT22;44276;49.534;6.378;2023-04-03T06:34:40;7.00;42.20
53776;DHT22;44276;49.534;6.378;2023-04-03T06:37:10;7.10;41.30
53776;DHT22;44276;49.534;6.378;2023-04-03T06:39:42;7.30;40.00
53776;DHT22;44276;49.534;6.378;2023-04-03T06:42:13;7.30;39.10
53776;DHT22;44276;49.534;6.378;2023-04-03T06:44:41;7.30;37.50
53776;DHT22;44276;49.534;6.378;2023-04-03T06:47:10;7.60;36.20
53776;DHT22;44276;49.534;6.378;2023-04-03T06:49:39;8.00;34.80
53776;DHT22;44276;49.534;6.378;2023-04-03T06:52:07;8.40;32.60
53776;DHT22;44276;49.534;6.378;2023-04-03T06:54:39;8.70;31.10
53776;DHT22;44276;49.534;6.378;2023-04-03T06:57:08;8.70;31.80
53776;DHT22;44276;49.534;6.378;2023-04-03T06:59:37;8.70;30.60
53776;DHT22;44276;49.534;6.378;2023-04-03T07:02:06;8.70;31.00
53776;DHT22;44276;49.534;6.378;2023-04-03T07:04:37;8.90;30.40
53776;DHT22;44276;49.534;6.378;2023-04-03T07:07:05;9.50;29.00
53776;DHT22;44276;49.534;6.378;2023-04-03T07:09:34;9.50;27.40
53776;DHT22;44276;49.534;6.378;2023-04-03T07:12:03;9.70;27.80
53776;DHT22;44276;49.534;6.378;2023-04-03T07:14:31;10.10;25.90
53776;DHT22;44276;49.534;6.378;2023-04-03T07:17:00;10.00;25.20
53776;DHT22;44276;49.534;6.378;2023-04-03T07:19:28;9.90;26.60
53776;DHT22;44276;49.534;6.378;2023-04-03T07:21:57;10.20;25.60
53776;DHT22;44276;49.534;6.378;2023-04-03T07:24:25;10.30;24.70
53776;DHT22;44276;49.534;6.378;2023-04-03T07:26:54;10.10;24.20
53776;DHT22;44276;49.534;6.378;2023-04-03T07:29:22;9.80;25.20
53776;DHT22;44276;49.534;6.378;2023-04-03T07:31:50;9.70;25.90
53776;DHT22;44276;49.534;6.378;2023-04-03T07:34:20;9.80;26.10
53776;DHT22;44276;49.534;6.378;2023-04-03T07:36:49;9.70;25.70
53776;DHT22;44276;49.534;6.378;2023-04-03T07:39:17;9.80;25.50
53776;DHT22;44276;49.534;6.378;2023-04-03T07:41:45;9.80;25.40
53776;DHT22;44276;49.534;6.378;2023-04-03T07:44:14;9.80;25.90
53776;DHT22;44276;49.534;6.378;2023-04-03T07:46:42;9.20;26.10
53776;DHT22;44276;49.534;6.378;2023-04-03T07:49:10;8.50;27.70
53776;DHT22;44276;49.534;6.378;2023-04-03T07:51:39;7.50;30.00
53776;DHT22;44276;49.534;6.378;2023-04-03T07:54:08;7.60;31.10
53776;DHT22;44276;49.534;6.378;2023-04-03T07:56:37;7.60;31.10
53776;DHT22;44276;49.534;6.378;2023-04-03T07:59:06;7.60;32.30
53776;DHT22;44276;49.534;6.378;2023-04-03T08:01:34;8.90;29.00
53776;DHT22;44276;49.534;6.378;2023-04-03T08:04:02;8.50;29.30
53776;DHT22;44276;49.534;6.378;2023-04-03T08:06:31;7.70;31.90
53776;DHT22;44276;49.534;6.378;2023-04-03T08:09:14;8.60;30.20
53776;DHT22;44276;49.534;6.378;2023-04-03T08:11:43;9.70;26.40
53776;DHT22;44276;49.534;6.378;2023-04-03T08:14:13;9.30;27.00
53776;DHT22;44276;49.534;6.378;2023-04-03T08:16:46;9.00;27.40
53776;DHT22;44276;49.534;6.378;2023-04-03T08:19:16;8.50;28.20
53776;DHT22;44276;49.534;6.378;2023-04-03T08:21:52;8.50;29.80
53776;DHT22;44276;49.534;6.378;2023-04-03T08:24:22;10.10;26.50
53776;DHT22;44276;49.534;6.378;2023-04-03T08:26:51;9.50;25.90
53776;DHT22;44276;49.534;6.378;2023-04-03T08:29:19;8.60;28.10
53776;DHT22;44276;49.534;6.378;2023-04-03T08:31:47;8.60;29.30
53776;DHT22;44276;49.534;6.378;2023-04-03T08:34:17;8.80;27.70
53776;DHT22;44276;49.534;6.378;2023-04-03T08:36:46;9.00;27.20
53776;DHT22;44276;49.534;6.378;2023-04-03T08:39:14;9.70;26.30
53776;DHT22;44276;49.534;6.378;2023-04-03T08:41:45;11.10;24.20
53776;DHT22;44276;49.534;6.378;2023-04-03T08:44:19;12.00;21.20
53776;DHT22;44276;49.534;6.378;2023-04-03T08:47:02;11.00;23.10
53776;DHT22;44276;49.534;6.378;2023-04-03T08:49:41;10.60;22.20
53776;DHT22;44276;49.534;6.378;2023-04-03T08:52:17;10.90;22.80
53776;DHT22;44276;49.534;6.378;2023-04-03T08:54:50;12.20;20.50
53776;DHT22;44276;49.534;6.378;2023-04-03T08:57:28;12.70;19.90
53776;DHT22;44276;49.534;6.378;2023-04-03T09:00:01;11.60;20.70
53776;DHT22;44276;49.534;6.378;2023-04-03T09:02:40;12.10;20.50
53776;DHT22;44276;49.534;6.378;2023-04-03T09:05:16;13.20;18.60
53776;DHT22;44276;49.534;6.378;2023-04-03T09:07:47;13.00;18.20
53776;DHT22;44276;49.534;6.378;2023-04-03T09:10:26;12.80;18.10
53776;DHT22;44276;49.534;6.378;2023-04-03T09:13:01;13.70;17.80
53776;DHT22;44276;49.534;6.378;2023-04-03T09:15:35;14.90;17.10
53776;DHT22;44276;49.534;6.378;2023-04-03T09:18:09;15.20;17.00
53776;DHT22;44276;49.534;6.378;2023-04-03T09:20:46;15.30;15.70
53776;DHT22;44276;49.534;6.378;2023-04-03T09:23:29;15.10;14.60
53776;DHT22;44276;49.534;6.378;2023-04-03T09:26:03;15.30;14.80
53776;DHT22;44276;49.534;6.378;2023-04-03T09:28:40;15.30;13.70
53776;DHT22;44276;49.534;6.378;2023-04-03T09:31:20;13.80;15.30
53776;DHT22;44276;49.534;6.378;2023-04-03T09:33:53;13.60;14.10
53776;DHT22;44276;49.534;6.378;2023-04-03T09:36:42;13.30;15.10
53776;DHT22;44276;49.534;6.378;2023-04-03T09:39:14;12.60;17.30
53776;DHT22;44276;49.534;6.378;2023-04-03T09:41:56;12.00;16.00
53776;DHT22;44276;49.534;6.378;2023-04-03T09:44:31;12.60;15.20
53776;DHT22;44276;49.534;6.378;2023-04-03T09:47:18;11.70;17.50
53776;DHT22;44276;49.534;6.378;2023-04-03T09:49:52;12.70;15.90
53776;DHT22;44276;49.534;6.378;2023-04-03T09:52:46;14.10;14.20
53776;DHT22;44276;49.534;6.378;2023-04-03T09:55:17;14.80;14.10
53776;DHT22;44276;49.534;6.378;2023-04-03T09:57:47;15.90;12.60
53776;DHT22;44276;49.534;6.378;2023-04-03T10:00:26;15.50;11.70
53776;DHT22;44276;49.534;6.378;2023-04-03T10:02:59;15.30;12.40
53776;DHT22;44276;49.534;6.378;2023-04-03T10:05:32;15.70;13.20
53776;DHT22;44276;49.534;6.378;2023-04-03T10:08:11;15.20;12.10
53776;DHT22;44276;49.534;6.378;2023-04-03T10:11:11;13.30;14.50
53776;DHT22;44276;49.534;6.378;2023-04-03T10:13:54;12.10;15.20
53776;DHT22;44276;49.534;6.378;2023-04-03T10:16:32;12.60;14.60
53776;DHT22;44276;49.534;6.378;2023-04-03T10:19:19;13.80;13.20
53776;DHT22;44276;49.534;6.378;2023-04-03T10:22:03;14.10;13.90
53776;DHT22;44276;49.534;6.378;2023-04-03T10:24:44;14.30;12.80
53776;DHT22;44276;49.534;6.378;2023-04-03T10:27:27;14.00;13.50
53776;DHT22;44276;49.534;6.378;2023-04-03T10:30:14;14.20;13.10
53776;DHT22;44276;49.534;6.378;2023-04-03T10:32:59;13.80;13.80
53776;DHT22;44276;49.534;6.378;2023-04-03T10:35:44;14.40;13.70
53776;DHT22;44276;49.534;6.378;2023-04-03T10:38:23;14.80;12.70
53776;DHT22;44276;49.534;6.378;2023-04-03T10:41:04;14.80;11.50
53776;DHT22;44276;49.534;6.378;2023-04-03T10:43:47;13.00;14.40
53776;DHT22;44276;49.534;6.378;2023-04-03T10:46:28;11.30;15.50
53776;DHT22;44276;49.534;6.378;2023-04-03T10:49:14;11.60;15.40
53776;DHT22;44276;49.534;6.378;2023-04-03T10:51:58;12.70;14.80
53776;DHT22;44276;49.534;6.378;2023-04-03T10:54:37;14.50;11.40
53776;DHT22;44276;49.534;6.378;2023-04-03T10:57:09;15.30;13.10
53776;DHT22;44276;49.534;6.378;2023-04-03T10:59:43;15.40;13.00
53776;DHT22;44276;49.534;6.378;2023-04-03T11:02:19;14.60;13.20
53776;DHT22;44276;49.534;6.378;2023-04-03T11:05:01;13.10;14.00
53776;DHT22;44276;49.534;6.378;2023-04-03T11:07:38;11.60;15.30
53776;DHT22;44276;49.534;6.378;2023-04-03T11:10:11;11.00;16.60
53776;DHT22;44276;49.534;6.378;2023-04-03T11:12:48;11.10;17.60
53776;DHT22;44276;49.534;6.378;2023-04-03T11:15:22;11.80;16.90
53776;DHT22;44276;49.534;6.378;2023-04-03T11:17:55;13.70;14.10
53776;DHT22;44276;49.534;6.378;2023-04-03T11:20:32;13.90;12.30
53776;DHT22;44276;49.534;6.378;2023-04-03T11:23:03;12.70;14.00
53776;DHT22;44276;49.534;6.378;2023-04-03T11:25:35;12.10;16.40
53776;DHT22;44276;49.534;6.378;2023-04-03T11:28:12;13.60;14.10
53776;DHT22;44276;49.534;6.378;2023-04-03T11:30:45;14.50;13.20
53776;DHT22;44276;49.534;6.378;2023-04-03T11:33:28;13.50;13.80
53776;DHT22;44276;49.534;6.378;2023-04-03T11:36:10;13.40;13.40
53776;DHT22;44276;49.534;6.378;2023-04-03T11:38:53;14.40;12.30
53776;DHT22;44276;49.534;6.378;2023-04-03T11:41:26;15.40;11.30
53776;DHT22;44276;49.534;6.378;2023-04-03T11:43:59;14.90;12.60
53776;DHT22;44276;49.534;6.378;2023-04-03T11:46:50;15.70;11.00
53776;DHT22;44276;49.534;6.378;2023-04-03T11:49:54;15.00;11.60
53776;DHT22;44276;49.534;6.378;2023-04-03T11:52:57;12.50;13.80
53776;DHT22;44276;49.534;6.378;2023-04-03T11:55:53;11.60;15.90
53776;DHT22;44276;49.534;6.378;2023-04-03T11:58:24;12.30;14.50
53776;DHT22;44276;49.534;6.378;2023-04-03T12:00:56;13.50;12.00
53776;DHT22;44276;49.534;6.378;2023-04-03T12:10:17;14.40;11.40
53776;DHT22;44276;49.534;6.378;2023-04-03T12:12:59;15.00;11.30
53776;DHT22;44276;49.534;6.378;2023-04-03T12:15:54;14.60;11.50
53776;DHT22;44276;49.534;6.378;2023-04-03T12:18:55;15.00;10.90
53776;DHT22;44276;49.534;6.378;2023-04-03T12:24:40;15.20;10.80
53776;DHT22;44276;49.534;6.378;2023-04-03T12:27:20;15.00;11.90
53776;DHT22;44276;49.534;6.378;2023-04-03T12:30:10;13.80;13.10
53776;DHT22;44276;49.534;6.378;2023-04-03T12:33:01;14.30;12.60
53776;DHT22;44276;49.534;6.378;2023-04-03T12:35:48;13.30;13.30
53776;DHT22;44276;49.534;6.378;2023-04-03T12:38:45;13.60;12.10
53776;DHT22;44276;49.534;6.378;2023-04-03T12:41:32;14.40;13.40
53776;DHT22;44276;49.534;6.378;2023-04-03T12:44:21;14.60;12.60
53776;DHT22;44276;49.534;6.378;2023-04-03T12:47:23;14.20;12.10
53776;DHT22;44276;49.534;6.378;2023-04-03T12:49:56;14.40;13.20
53776;DHT22;44276;49.534;6.378;2023-04-03T12:52:33;15.00;11.30
53776;DHT22;44276;49.534;6.378;2023-04-03T12:55:14;15.10;11.10
53776;DHT22;44276;49.534;6.378;2023-04-03T12:57:44;15.30;11.90
53776;DHT22;44276;49.534;6.378;2023-04-03T13:00:27;16.10;10.20
53776;DHT22;44276;49.534;6.378;2023-04-03T13:02:59;15.90;10.60
53776;DHT22;44276;49.534;6.378;2023-04-03T13:05:32;15.30;10.80
53776;DHT22;44276;49.534;6.378;2023-04-03T13:08:05;15.20;10.10
53776;DHT22;44276;49.534;6.378;2023-04-03T13:10:53;15.40;10.90
53776;DHT22;44276;49.534;6.378;2023-04-03T13:13:26;15.80;11.00
53776;DHT22;44276;49.534;6.378;2023-04-03T13:15:56;14.70;11.40
53776;DHT22;44276;49.534;6.378;2023-04-03T13:18:28;15.00;12.10
53776;DHT22;44276;49.534;6.378;2023-04-03T13:21:01;15.40;10.60
53776;DHT22;44276;49.534;6.378;2023-04-03T13:23:36;15.80;11.10
53776;DHT22;44276;49.534;6.378;2023-04-03T13:26:07;14.50;11.10
53776;DHT22;44276;49.534;6.378;2023-04-03T13:28:36;13.40;13.10
53776;DHT22;44276;49.534;6.378;2023-04-03T13:31:18;12.70;15.10
53776;DHT22;44276;49.534;6.378;2023-04-03T13:34:05;12.10;14.60
53776;DHT22;44276;49.534;6.378;2023-04-03T13:36:40;11.50;15.50
53776;DHT22;44276;49.534;6.378;2023-04-03T13:39:23;12.70;14.00
53776;DHT22;44276;49.534;6.378;2023-04-03T13:41:55;13.50;12.90
53776;DHT22;44276;49.534;6.378;2023-04-03T13:44:31;13.70;13.10
53776;DHT22;44276;49.534;6.378;2023-04-03T13:47:18;13.90;12.80
53776;DHT22;44276;49.534;6.378;2023-04-03T13:50:00;14.70;11.50
53776;DHT22;44276;49.534;6.378;2023-04-03T13:52:33;15.40;11.10
53776;DHT22;44276;49.534;6.378;2023-04-03T13:55:18;15.40;12.20
53776;DHT22;44276;49.534;6.378;2023-04-03T13:57:55;15.10;11.00
53776;DHT22;44276;49.534;6.378;2023-04-03T14:00:35;15.80;10.40
53776;DHT22;44276;49.534;6.378;2023-04-03T14:03:21;16.70;8.10
53776;DHT22;44276;49.534;6.378;2023-04-03T14:05:51;16.50;9.80
53776;DHT22;44276;49.534;6.378;2023-04-03T14:08:20;13.70;11.50
53776;DHT22;44276;49.534;6.378;2023-04-03T14:11:05;12.10;13.70
53776;DHT22;44276;49.534;6.378;2023-04-03T14:13:34;12.30;14.10
53776;DHT22;44276;49.534;6.378;2023-04-03T14:16:03;13.50;12.70
53776;DHT22;44276;49.534;6.378;2023-04-03T14:18:43;13.70;12.50
53776;DHT22;44276;49.534;6.378;2023-04-03T14:21:13;13.70;12.60
53776;DHT22;44276;49.534;6.378;2023-04-03T14:23:43;13.10;12.80
53776;DHT22;44276;49.534;6.378;2023-04-03T14:26:14;13.10;13.20
53776;DHT22;44276;49.534;6.378;2023-04-03T14:28:45;13.20;12.40
53776;DHT22;44276;49.534;6.378;2023-04-03T14:31:15;13.50;11.60
53776;DHT22;44276;49.534;6.378;2023-04-03T14:33:45;12.80;14.20
53776;DHT22;44276;49.534;6.378;2023-04-03T14:36:15;12.10;13.80
53776;DHT22;44276;49.534;6.378;2023-04-03T14:38:45;12.00;16.20
53776;DHT22;44276;49.534;6.378;2023-04-03T14:41:15;11.80;15.20
53776;DHT22;44276;49.534;6.378;2023-04-03T14:43:46;11.40;15.70
53776;DHT22;44276;49.534;6.378;2023-04-03T14:46:17;11.30;16.20
53776;DHT22;44276;49.534;6.378;2023-04-03T14:48:54;12.00;15.10
53776;DHT22;44276;49.534;6.378;2023-04-03T14:51:23;12.80;12.90
53776;DHT22;44276;49.534;6.378;2023-04-03T14:53:52;13.00;12.90
53776;DHT22;44276;49.534;6.378;2023-04-03T14:56:25;13.50;12.70
53776;DHT22;44276;49.534;6.378;2023-04-03T14:58:57;12.70;13.60
53776;DHT22;44276;49.534;6.378;2023-04-03T15:01:30;12.10;13.60
53776;DHT22;44276;49.534;6.378;2023-04-03T15:03:59;11.30;15.00
53776;DHT22;44276;49.534;6.378;2023-04-03T15:06:35;10.90;15.20
53776;DHT22;44276;49.534;6.378;2023-04-03T15:09:03;10.80;16.00
53776;DHT22;44276;49.534;6.378;2023-04-03T15:11:31;11.30;15.90
53776;DHT22;44276;49.534;6.378;2023-04-03T15:14:03;12.70;13.70
53776;DHT22;44276;49.534;6.378;2023-04-03T15:16:31;13.50;14.00
53776;DHT22;44276;49.534;6.378;2023-04-03T15:19:01;12.40;14.50
53776;DHT22;44276;49.534;6.378;2023-04-03T15:21:29;11.40;15.60
53776;DHT22;44276;49.534;6.378;2023-04-03T15:23:57;10.90;16.40
53776;DHT22;44276;49.534;6.378;2023-04-03T15:26:27;10.50;16.10
53776;DHT22;44276;49.534;6.378;2023-04-03T15:28:56;10.40;16.80
53776;DHT22;44276;49.534;6.378;2023-04-03T15:31:25;10.90;15.00
53776;DHT22;44276;49.534;6.378;2023-04-03T15:33:53;11.80;15.50
53776;DHT22;44276;49.534;6.378;2023-04-03T15:36:23;12.20;14.60
53776;DHT22;44276;49.534;6.378;2023-04-03T15:39:00;12.00;13.60
53776;DHT22;44276;49.534;6.378;2023-04-03T15:41:28;11.30;15.30
53776;DHT22;44276;49.534;6.378;2023-04-03T15:43:56;10.60;15.30
53776;DHT22;44276;49.534;6.378;2023-04-03T15:46:26;10.60;17.10
53776;DHT22;44276;49.534;6.378;2023-04-03T15:48:54;10.80;15.60
53776;DHT22;44276;49.534;6.378;2023-04-03T15:51:24;10.90;15.30
53776;DHT22;44276;49.534;6.378;2023-04-03T15:53:52;10.80;16.80
53776;DHT22;44276;49.534;6.378;2023-04-03T15:56:21;10.50;17.70
53776;DHT22;44276;49.534;6.378;2023-04-03T15:58:49;10.40;15.70
53776;DHT22;44276;49.534;6.378;2023-04-03T16:01:17;10.20;16.00
53776;DHT22;44276;49.534;6.378;2023-04-03T16:03:46;10.00;17.20
53776;DHT22;44276;49.534;6.378;2023-04-03T16:06:15;9.70;17.10
53776;DHT22;44276;49.534;6.378;2023-04-03T16:08:48;9.50;17.80
53776;DHT22;44276;49.534;6.378;2023-04-03T16:11:17;9.40;18.60
53776;DHT22;44276;49.534;6.378;2023-04-03T16:13:45;9.50;19.00
53776;DHT22;44276;49.534;6.378;2023-04-03T16:16:13;9.20;17.00
53776;DHT22;44276;49.534;6.378;2023-04-03T16:18:42;8.90;17.30
53776;DHT22;44276;49.534;6.378;2023-04-03T16:21:10;8.70;18.20
53776;DHT22;44276;49.534;6.378;2023-04-03T16:23:40;8.40;19.40